Time;durP1;ratioP1;P1;durP2;ratioP2;P2;SDS_P1;SDS_P2;PMS_P1;PMS_P2;Temp;Humidity;BMP_temperature;BMP_pressure;BME280_temperature;BME280_humidity;BME280_pressure;Samples;Min_cycle;Max_cycle;Signal;HPM_P1;HPM_P2
2022/12/16 00:00:25;;;;;;;22.25;15.07;;;-0.20;99.90;;;;;;5094794;28;20446;-46
2022/12/16 00:02:52;;;;;;;22.23;14.75;;;-0.10;99.90;;;;;;5093930;28;20414;-51
2022/12/16 00:05:21;;;;;;;22.10;15.07;;;-0.10;99.90;;;;;;5093063;28;20416;-50
2022/12/16 00:07:48;;;;;;;20.50;13.93;;;-0.10;99.90;;;;;;5093992;28;20484;-52
2022/12/16 00:10:15;;;;;;;21.52;14.30;;;0.00;99.90;;;;;;5095491;28;20457;-53
2022/12/16 00:12:42;;;;;;;21.83;14.88;;;0.00;99.90;;;;;;5095583;28;20426;-47
2022/12/16 00:15:10;;;;;;;21.48;14.90;;;0.00;99.90;;;;;;5095401;28;20445;-48
2022/12/16 00:17:38;;;;;;;22.98;14.93;;;0.00;99.90;;;;;;5095227;28;20787;-48
2022/12/16 00:20:06;;;;;;;19.43;14.27;;;0.00;99.90;;;;;;5095739;28;20424;-53
2022/12/16 00:22:34;;;;;;;20.73;14.50;;;0.10;99.90;;;;;;5095612;28;20512;-50
2022/12/16 00:25:01;;;;;;;24.20;15.38;;;0.10;99.90;;;;;;5094837;28;20896;-46
2022/12/16 00:27:28;;;;;;;21.60;14.55;;;0.20;99.90;;;;;;5095149;28;20486;-46
2022/12/16 00:29:55;;;;;;;22.02;15.48;;;0.20;99.90;;;;;;5095298;28;20823;-48
2022/12/16 00:32:22;;;;;;;19.52;14.40;;;0.00;99.90;;;;;;5094635;28;20430;-50
2022/12/16 00:34:48;;;;;;;22.45;14.73;;;-0.10;99.90;;;;;;5094882;28;20487;-47
2022/12/16 00:37:15;;;;;;;20.55;15.25;;;0.10;99.90;;;;;;5095080;28;20487;-49
2022/12/16 00:39:44;;;;;;;22.38;15.10;;;0.00;99.90;;;;;;5095046;28;20426;-49
2022/12/16 00:42:11;;;;;;;22.20;14.55;;;-0.10;99.90;;;;;;5091510;28;20469;-50
2022/12/16 00:44:38;;;;;;;21.40;14.70;;;-0.20;99.90;;;;;;5094871;28;20437;-48
2022/12/16 00:47:05;;;;;;;20.50;14.20;;;-0.30;99.90;;;;;;5094404;28;20430;-51
2022/12/16 00:49:31;;;;;;;18.65;13.02;;;-0.20;99.90;;;;;;5094049;28;20445;-47
2022/12/16 00:51:58;;;;;;;21.13;14.27;;;-0.20;99.90;;;;;;5093154;28;20459;-54
2022/12/16 00:54:25;;;;;;;21.90;15.25;;;-0.20;99.90;;;;;;5095212;28;20781;-52
2022/12/16 00:56:54;;;;;;;20.73;13.50;;;-0.20;99.90;;;;;;5094040;28;20517;-53
2022/12/16 00:59:21;;;;;;;23.70;14.35;;;-0.20;99.90;;;;;;5094266;28;20834;-53
2022/12/16 01:01:50;;;;;;;22.20;14.30;;;-0.10;99.90;;;;;;5094443;28;20461;-53
2022/12/16 01:04:17;;;;;;;18.38;12.82;;;0.10;99.90;;;;;;5094564;28;20463;-52
2022/12/16 01:06:44;;;;;;;20.25;14.40;;;0.20;99.90;;;;;;5094352;28;20465;-50
2022/12/16 01:09:11;;;;;;;18.67;12.90;;;0.30;99.90;;;;;;5094658;28;20786;-48
2022/12/16 01:11:38;;;;;;;20.63;13.98;;;-0.10;99.90;;;;;;5095003;28;20779;-50
2022/12/16 01:14:06;;;;;;;22.88;14.68;;;-0.20;99.90;;;;;;5095098;28;20449;-52
2022/12/16 01:16:33;;;;;;;23.77;15.17;;;-0.30;99.90;;;;;;5094926;28;20511;-47
2022/12/16 01:19:00;;;;;;;22.00;13.82;;;-0.30;99.90;;;;;;5095231;28;20456;-48
2022/12/16 01:21:27;;;;;;;20.48;13.63;;;-0.10;99.90;;;;;;5095262;28;20428;-50
2022/12/16 01:23:54;;;;;;;22.20;14.90;;;-0.10;99.90;;;;;;5095567;28;20508;-47
2022/12/16 01:26:21;;;;;;;21.90;12.90;;;-0.10;99.90;;;;;;5094078;28;20464;-51
2022/12/16 01:28:49;;;;;;;22.43;14.23;;;0.00;99.90;;;;;;5094962;28;20509;-46
2022/12/16 01:31:18;;;;;;;18.67;13.60;;;-0.10;99.90;;;;;;5094828;28;20428;-51
2022/12/16 01:33:45;;;;;;;20.98;13.20;;;-0.20;99.90;;;;;;5095147;28;20762;-48
2022/12/16 01:36:12;;;;;;;20.70;13.95;;;-0.30;99.90;;;;;;5094863;28;20548;-49
2022/12/16 01:38:41;;;;;;;20.77;14.15;;;-0.20;99.90;;;;;;5094753;28;20471;-50
2022/12/16 01:41:09;;;;;;;20.27;13.63;;;-0.10;99.90;;;;;;5094891;28;20504;-50
2022/12/16 01:43:38;;;;;;;24.00;15.10;;;-0.20;99.90;;;;;;5094280;28;20453;-51
2022/12/16 01:46:09;;;;;;;19.27;14.05;;;-0.30;99.90;;;;;;5097902;28;20486;-50
2022/12/16 01:48:43;;;;;;;20.48;13.40;;;-0.10;99.90;;;;;;5097697;28;20417;-50
2022/12/16 01:51:15;;;;;;;18.40;12.45;;;0.00;99.90;;;;;;5098248;28;20550;-48
2022/12/16 01:53:44;;;;;;;23.67;14.25;;;0.00;99.90;;;;;;5098237;28;20831;-47
2022/12/16 01:56:15;;;;;;;23.58;13.80;;;-0.10;99.90;;;;;;5098615;28;20482;-50
2022/12/16 01:58:43;;;;;;;18.75;13.93;;;-0.10;99.90;;;;;;5098241;28;20449;-47
2022/12/16 02:01:10;;;;;;;19.85;13.10;;;0.20;99.90;;;;;;5098458;28;20706;-51
2022/12/16 02:03:39;;;;;;;21.42;14.02;;;0.20;99.90;;;;;;5098102;28;20443;-50
2022/12/16 02:06:07;;;;;;;19.23;11.50;;;0.00;99.90;;;;;;5097860;28;20461;-46
2022/12/16 02:08:34;;;;;;;17.92;12.57;;;-0.10;99.90;;;;;;5097811;28;20496;-48
2022/12/16 02:11:21;;;;;;;18.40;13.27;;;0.00;99.90;;;;;;5097767;28;20793;-47
2022/12/16 02:14:13;;;;;;;19.63;13.30;;;0.00;99.90;;;;;;5097976;28;20445;-52
2022/12/16 02:16:50;;;;;;;18.85;12.38;;;0.00;99.90;;;;;;5097780;28;20417;-47
2022/12/16 02:19:52;;;;;;;16.60;12.32;;;0.00;99.90;;;;;;5097940;28;20507;-52
2022/12/16 02:22:33;;;;;;;21.42;12.50;;;0.10;99.90;;;;;;5098276;28;20512;-47
2022/12/16 02:25:33;;;;;;;17.58;12.20;;;0.10;99.90;;;;;;5097418;28;20822;-48
2022/12/16 02:28:05;;;;;;;18.95;12.68;;;0.10;99.90;;;;;;5097252;28;20842;-51
2022/12/16 02:31:00;;;;;;;18.17;12.07;;;0.10;99.90;;;;;;5097795;28;20468;-50
2022/12/16 02:33:52;;;;;;;20.67;12.90;;;0.10;99.90;;;;;;5098158;28;20733;-49
2022/12/16 02:36:30;;;;;;;19.63;12.38;;;0.00;99.90;;;;;;5098199;28;20501;-51
2022/12/16 02:39:00;;;;;;;20.30;13.02;;;0.10;99.90;;;;;;5097614;28;20512;-48
2022/12/16 02:41:37;;;;;;;19.48;12.75;;;0.20;99.90;;;;;;5097564;28;20775;-47
2022/12/16 02:44:06;;;;;;;18.85;11.88;;;0.20;99.90;;;;;;5097499;28;20768;-48
2022/12/16 02:46:40;;;;;;;19.33;13.07;;;0.10;99.90;;;;;;5096823;28;20430;-48
2022/12/16 02:49:09;;;;;;;17.43;12.13;;;0.10;99.90;;;;;;5097008;28;20410;-51
2022/12/16 02:51:38;;;;;;;18.50;12.35;;;0.20;99.90;;;;;;5096044;28;20519;-52
2022/12/16 02:54:07;;;;;;;19.08;12.27;;;0.20;99.90;;;;;;5097853;28;20569;-51
2022/12/16 02:56:48;;;;;;;15.88;11.13;;;0.30;99.90;;;;;;5095419;28;20422;-50
2022/12/16 02:59:23;;;;;;;17.98;12.10;;;0.30;99.90;;;;;;5096590;28;20449;-48
2022/12/16 03:01:56;;;;;;;18.60;12.73;;;0.30;99.90;;;;;;5096933;28;20824;-46
2022/12/16 03:04:29;;;;;;;19.15;12.77;;;0.40;99.90;;;;;;5096974;28;20453;-46
2022/12/16 03:06:57;;;;;;;19.75;11.88;;;0.10;99.90;;;;;;5096794;28;20516;-48
2022/12/16 03:09:28;;;;;;;18.25;11.88;;;-0.10;99.90;;;;;;5096721;28;20853;-49
2022/12/16 03:11:56;;;;;;;19.25;13.70;;;-0.10;99.90;;;;;;5096661;28;20461;-49
2022/12/16 03:14:26;;;;;;;17.27;11.63;;;-0.30;99.90;;;;;;5096773;28;20513;-49
2022/12/16 03:16:55;;;;;;;16.27;12.18;;;-0.40;99.90;;;;;;5096627;28;20418;-49
2022/12/16 03:19:24;;;;;;;19.87;14.00;;;-0.30;99.90;;;;;;5096628;28;20422;-49
2022/12/16 03:21:59;;;;;;;17.15;12.05;;;-0.20;99.90;;;;;;5095738;28;20457;-51
2022/12/16 03:24:27;;;;;;;18.97;12.40;;;-0.10;99.90;;;;;;5096456;28;20553;-47
2022/12/16 03:27:02;;;;;;;19.73;12.20;;;0.00;99.90;;;;;;5096635;28;20487;-49
2022/12/16 03:29:38;;;;;;;16.27;10.82;;;0.10;99.90;;;;;;5096900;28;20726;-47
2022/12/16 03:32:11;;;;;;;16.83;12.00;;;0.10;99.90;;;;;;5096674;28;20468;-48
2022/12/16 03:34:43;;;;;;;16.85;11.35;;;-0.20;99.90;;;;;;5096349;28;20457;-49
2022/12/16 03:37:12;;;;;;;17.30;12.07;;;-0.60;99.90;;;;;;5096322;28;20453;-49
2022/12/16 03:39:43;;;;;;;17.05;12.00;;;-0.60;99.90;;;;;;5096481;28;20699;-51
2022/12/16 03:42:11;;;;;;;20.95;12.82;;;-0.30;99.90;;;;;;5096254;28;20430;-48
2022/12/16 03:44:39;;;;;;;18.23;11.60;;;-0.20;99.90;;;;;;5095748;28;20461;-47
2022/12/16 03:47:07;;;;;;;16.92;12.05;;;-0.20;99.90;;;;;;5096486;28;20485;-48
2022/12/16 03:49:34;;;;;;;16.65;12.02;;;-0.20;99.90;;;;;;5096282;28;20441;-47
2022/12/16 03:52:01;;;;;;;17.65;12.27;;;-0.30;99.90;;;;;;5096070;28;20429;-48
2022/12/16 03:54:28;;;;;;;18.37;11.10;;;-0.40;99.90;;;;;;5095599;28;20857;-48
2022/12/16 03:56:55;;;;;;;14.90;11.43;;;-0.30;99.90;;;;;;5096057;28;20465;-46
2022/12/16 03:59:22;;;;;;;14.55;11.23;;;-0.30;99.90;;;;;;5095895;28;20493;-50
2022/12/16 04:01:49;;;;;;;17.63;12.07;;;-0.30;99.90;;;;;;5096064;28;20453;-50
2022/12/16 04:04:18;;;;;;;14.83;10.73;;;-0.20;99.90;;;;;;5096072;28;20414;-51
2022/12/16 04:07:18;;;;;;;17.93;11.00;;;-0.20;99.90;;;;;;5095781;28;20483;-49
2022/12/16 04:09:32;;;;;;;16.08;10.40;;;0.00;99.90;;;;;;5095952;28;20489;-47
2022/12/16 04:25:46;;;;;;;14.75;10.90;;;0.00;99.90;;;;;;5095244;28;20790;-51
2022/12/16 04:28:13;;;;;;;14.07;9.73;;;0.00;99.90;;;;;;5095365;28;20907;-51
2022/12/16 04:30:40;;;;;;;11.18;8.10;;;0.00;99.90;;;;;;5095507;28;20472;-47
